Flight Track Log - Related Links

Times and Time Zones

All times are in EDT time to prevent confusion due to time zone crossing. See the ASQ5181 flight status page for this flight to view local times or setup timezone preferences in your user account.

Time Position Orientation Groundspeed Altitude Reporting Facility
EDT Latitude Longitude Course Direction KTS MPH feet Rate Location/Type
Tue 10:11:51 PM 40.7500 -74.1167 252° West 239 275 3,000  Level New York TRACON
Tue 10:12:45 PM 40.7667 -74.2000 285° West 275 316 3,700 2,105 Climbing New York TRACON
Tue 10:13:45 PM 40.7333 -74.2833 242° Southwest 274 315 7,000 3,000 Climbing New York TRACON
Tue 10:14:51 PM 40.7167 -74.4000 259° West 299 344 10,000 2,171 Climbing New York TRACON
Tue 10:17:00 PM 40.5574 -74.9870 252° West  Level FlightAware Approximate
Tue 10:17:04 PM 40.6594 -74.6775 255° West 373 429 14,200  Level New York Center
Tue 10:18:05 PM 40.6347 -74.7964 255° West 383 441 16,500 2,269 Climbing New York Center
Tue 10:19:03 PM 40.6022 -74.9475 254° West 394 453 18,700 1,950 Climbing New York Center
Tue 10:20:05 PM 40.5425 -75.0478 232° Southwest 394 453 20,400 1,672 Climbing New York Center
Tue 10:21:05 PM 40.4653 -75.1631 229° Southwest 402 463 22,100 1,641 Climbing New York Center
Tue 10:22:02 PM 40.3878 -75.2806 229° Southwest 424 488 23,600 1,373 Climbing New York Center
Tue 10:23:03 PM 40.3100 -75.4117 232° Southwest 440 506 24,800 1,279 Climbing New York Center
Tue 10:24:04 PM 40.2442 -75.5461 237° Southwest 452 520 26,200 1,537 Climbing New York Center
Tue 10:25:04 PM 40.1744 -75.6689 233° Southwest 446 513 27,900 843 Climbing New York Center
Tue 10:26:05 PM 40.0750 -75.8003 225° Southwest 446 513 27,900 50 Level New York Center
Tue 10:27:03 PM 40.0111 -75.9311 238° Southwest 446 513 28,000 1,008 Climbing New York Center
Tue 10:28:04 PM 39.9572 -76.0653 242° Southwest 435 501 29,900 1,770 Climbing New York Center
Tue 10:29:05 PM 39.8969 -76.1961 239° Southwest 422 486 31,600 1,171 Climbing New York Center
Tue 10:31:34 PM 39.7228 -76.4953 233° Southwest 435 501 34,000 689 Climbing Washington Center
Tue 10:32:34 PM 39.6342 -76.6369 231° Southwest 447 514 34,000  Level Washington Center
Tue 10:33:34 PM 39.5578 -76.7678 233° Southwest 463 533 34,000  Level Washington Center
Tue 10:34:34 PM 39.4878 -76.9064 237° Southwest 468 539 34,000  Level Washington Center
Tue 10:35:34 PM 39.4319 -77.0533 244° Southwest 462 532 34,000  Level Washington Center
Tue 10:36:34 PM 39.3367 -77.1614 221° Southwest 455 524 34,000  Level Washington Center
Tue 10:37:34 PM 39.2311 -77.2636 217° Southwest 461 531 34,000  Level Washington Center
Tue 10:38:34 PM 39.1294 -77.3708 219° Southwest 467 537 34,000  Level Washington Center
Tue 10:39:34 PM 39.0300 -77.4728 219° Southwest 467 537 34,000  Level Washington Center
Tue 10:40:34 PM 38.9367 -77.5664 218° Southwest 472 543 34,000  Level Washington Center
Tue 10:41:34 PM 38.8372 -77.6678 218° Southwest 472 543 34,000  Level Washington Center
Tue 10:42:34 PM 38.7331 -77.7792 220° Southwest 488 562 34,000  Level Washington Center
Tue 10:43:34 PM 38.6331 -77.8825 219° Southwest 482 555 34,000  Level Washington Center
Tue 10:44:34 PM 38.5514 -78.0022 229° Southwest 464 534 34,000  Level Washington Center
Tue 10:45:34 PM 38.4819 -78.1353 236° Southwest 458 527 34,000  Level Washington Center
Tue 10:46:34 PM 38.4103 -78.2653 235° Southwest 458 527 34,000  Level Washington Center
Tue 10:47:34 PM 38.3386 -78.3978 235° Southwest 463 533 34,000  Level Washington Center
Tue 10:48:34 PM 38.2644 -78.5297 234° Southwest 463 533 34,000  Level Washington Center
Tue 10:49:34 PM 38.1947 -78.6564 235° Southwest 463 533 34,000  Level Washington Center
Tue 10:50:34 PM 38.1117 -78.7956 233° Southwest 457 526 34,000  Level Washington Center
Tue 10:51:34 PM 38.0353 -78.9189 232° Southwest 457 526 34,000  Level Washington Center
Tue 10:52:34 PM 37.9486 -79.0336 226° Southwest 457 526 34,000  Level Washington Center
Tue 10:53:34 PM 37.8703 -79.1511 230° Southwest 452 520 34,000  Level Washington Center
Tue 10:54:34 PM 37.7981 -79.2581 230° Southwest 447 514 34,000  Level Washington Center
Tue 10:55:34 PM 37.7172 -79.3750 229° Southwest 447 514 34,000  Level Washington Center
Tue 10:56:34 PM 37.6278 -79.5042 229° Southwest 447 514 34,000  Level Washington Center
Tue 10:58:29 PM 37.4650 -79.7250 227° Southwest 454 522 34,000  Level Atlanta Center
Tue 10:59:29 PM 37.3814 -79.8367 227° Southwest 454 522 34,000  Level Atlanta Center
Tue 11:00:29 PM 37.2956 -79.9483 226° Southwest 454 522 34,000  Level Atlanta Center
Tue 11:01:29 PM 37.2194 -80.0486 226° Southwest 448 516 34,000  Level Atlanta Center
Tue 11:02:29 PM 37.1375 -80.1597 227° Southwest 448 516 34,000  Level Atlanta Center
Tue 11:03:29 PM 37.0578 -80.2781 230° Southwest 442 509 34,000  Level Atlanta Center
Tue 11:04:29 PM 36.9800 -80.3908 229° Southwest 442 509 34,000  Level Atlanta Center
Tue 11:05:29 PM 36.8942 -80.5219 231° Southwest 442 509 34,000  Level Atlanta Center
Tue 11:06:29 PM 36.8139 -80.6344 228° Southwest 442 509 34,000  Level Atlanta Center
Tue 11:07:29 PM 36.7417 -80.7386 229° Southwest 442 509 34,000  Level Atlanta Center
Tue 11:08:29 PM 36.6492 -80.8614 227° Southwest 442 509 34,000  Level Atlanta Center
Tue 11:09:29 PM 36.5622 -80.9733 226° Southwest 447 514 34,000  Level Atlanta Center
Tue 11:10:29 PM 36.4775 -81.0850 227° Southwest 447 514 34,000  Level Atlanta Center
Tue 11:11:29 PM 36.3925 -81.1992 227° Southwest 458 527 34,000  Level Atlanta Center
Tue 11:12:29 PM 36.3094 -81.3078 227° Southwest 458 527 34,000  Level Atlanta Center
Tue 11:13:29 PM 36.2222 -81.4186 226° Southwest 452 520 34,000  Level Atlanta Center
Tue 11:14:29 PM 36.1369 -81.5294 226° Southwest 457 526 34,000  Level Atlanta Center
Tue 11:15:29 PM 36.0514 -81.6400 226° Southwest 451 519 34,000  Level Atlanta Center
Tue 11:16:29 PM 35.9639 -81.7503 226° Southwest 453 521 34,000  Level Atlanta Center
Tue 11:17:29 PM 35.8783 -81.8631 227° Southwest 458 527 34,000  Level Atlanta Center
Tue 11:18:29 PM 35.7903 -81.9625 223° Southwest 452 520 34,000  Level Atlanta Center
Tue 11:19:29 PM 35.6983 -82.0672 223° Southwest 452 520 34,000  Level Atlanta Center
Tue 11:20:29 PM 35.6103 -82.1714 224° Southwest 447 514 34,000  Level Atlanta Center
Tue 11:21:29 PM 35.5178 -82.2731 222° Southwest 447 514 34,000 -400 Level Atlanta Center
Tue 11:22:29 PM 35.4297 -82.3819 225° Southwest 447 514 33,200 -850 Descending Atlanta Center
Tue 11:23:29 PM 35.3536 -82.4728 224° Southwest 442 509 32,300 -1,050 Descending Atlanta Center
Tue 11:24:29 PM 35.2611 -82.5814 224° Southwest 429 494 31,100 -1,100 Descending Atlanta Center
Tue 11:25:29 PM 35.1808 -82.6894 228° Southwest 429 494 30,100 -1,000 Descending Atlanta Center
Tue 11:26:29 PM 35.1028 -82.7947 228° Southwest 424 488 29,100 -1,000 Descending Atlanta Center
Tue 11:27:29 PM 35.0244 -82.9000 228° Southwest 424 488 28,100 -1,000 Descending Atlanta Center
Tue 11:28:29 PM 34.9481 -82.9997 227° Southwest 419 482 27,100 -1,350 Descending Atlanta Center
Tue 11:29:29 PM 34.8717 -83.0969 226° Southwest 408 470 25,400 -1,700 Descending Atlanta Center
Tue 11:30:29 PM 34.7911 -83.1864 222° Southwest 401 461 23,700 -1,650 Descending Atlanta Center
Tue 11:31:29 PM 34.7081 -83.2783 222° Southwest 395 455 22,100 -1,550 Descending Atlanta Center
Tue 11:32:29 PM 34.6333 -83.3469 217° Southwest 389 448 20,600 -1,650 Descending Atlanta Center
Tue 11:33:29 PM 34.5544 -83.4308 221° Southwest 384 442 18,800 -1,650 Descending Atlanta Center
Tue 11:34:29 PM 34.4736 -83.5122 220° Southwest 379 436 17,300 -1,600 Descending Atlanta Center
Tue 11:35:29 PM 34.3944 -83.5881 218° Southwest 373 429 15,600 -1,650 Descending Atlanta Center
Tue 11:36:29 PM 34.3114 -83.6567 214° Southwest 373 429 14,000 -800 Descending Atlanta Center
Tue 11:37:29 PM 34.2300 -83.7222 214° Southwest 360 414 14,000  Level Atlanta Center
Tue 11:38:29 PM 34.1425 -83.7928 214° Southwest 354 407 14,000 -100 Level Atlanta Center
Tue 11:39:29 PM 34.0697 -83.8658 220° Southwest 354 407 13,800 -643 Descending Atlanta Center
Tue 11:39:53 PM 34.0500 -83.9000 235° Southwest 338 389 13,100 -1,500 Descending Atlanta TRACON
Tue 11:40:53 PM 34.0167 -84.0000 248° West 333 383 11,700 -1,050 Descending Atlanta TRACON
Tue 11:41:53 PM 33.9667 -84.1000 239° Southwest 324 373 11,000 -350 Descending Atlanta TRACON
Tue 11:42:53 PM 33.9333 -84.2000 248° West 329 379 11,000 -95 Level Atlanta TRACON
Tue 11:43:59 PM 33.8833 -84.3000 239° Southwest 313 360 10,800 -857 Descending Atlanta TRACON
Tue 11:44:59 PM 33.8500 -84.3833 244° Southwest 278 320 9,200 -1,750 Descending Atlanta TRACON
Tue 11:45:59 PM 33.8167 -84.4833 248° West 268 308 7,300 -1,778 Descending Atlanta TRACON
Tue 11:46:47 PM 33.8000 -84.5333 248° West 259 298 6,000 -1,588 Descending Atlanta TRACON
Tue 11:47:41 PM 33.7667 -84.5833 231° Southwest 261 300 4,600 -1,263 Descending Atlanta TRACON
Tue 11:48:41 PM 33.7000 -84.5667 168° South 227 261 3,600 -950 Descending Atlanta TRACON
Tue 11:49:41 PM 33.6667 -84.5167 129° Southeast 155 178 2,700 -850 Descending Atlanta TRACON
Tue 11:50:41 PM 33.6500 -84.4833 121° Southeast 140 161 1,900 -800 Descending Atlanta TRACON
Tue 11:52:00 PM 33.6367 -84.4279 118° Southeast  Level Estimated
Tue 11:59:00 PM 33.6367 -84.4279 118° Southeast  Level Estimated
Wed 12:00:00 AM 33.6367 -84.4279 118° Southeast  Level Estimated

Login

Don't have an account? Register now (free) for customized features, flight alerts, and more!